createdAt,value
2022-11-19T00:13:14.913Z,-0.60
2022-11-19T00:28:18.161Z,-0.55
2022-11-19T00:43:40.264Z,-0.46
2022-11-19T00:58:44.694Z,-0.55
2022-11-19T01:13:48.785Z,-0.63
2022-11-19T01:28:52.318Z,-0.73
2022-11-19T01:44:29.654Z,-0.60
2022-11-19T01:59:33.339Z,-0.46
2022-11-19T02:14:52.005Z,-0.48
2022-11-19T02:30:05.170Z,-0.49
2022-11-19T02:45:31.829Z,-0.39
2022-11-19T03:01:04.274Z,-0.30
2022-11-19T03:16:31.662Z,-0.43
2022-11-19T03:31:36.166Z,-0.47
2022-11-19T03:46:41.430Z,-0.49
2022-11-19T04:01:51.676Z,-0.54
2022-11-19T04:16:55.907Z,-0.59
2022-11-19T04:31:59.063Z,-0.64
2022-11-19T04:47:02.630Z,-0.62
2022-11-19T05:02:06.042Z,-0.63
2022-11-19T05:17:09.224Z,-0.74
2022-11-19T05:32:12.375Z,-0.75
2022-11-19T05:47:16.871Z,-0.77
2022-11-19T06:02:20.456Z,-0.82
2022-11-19T06:17:24.005Z,-0.73
2022-11-19T06:32:27.747Z,-0.85
2022-11-19T06:47:32.153Z,-0.99
2022-11-19T07:02:35.701Z,-0.97
2022-11-19T07:17:40.300Z,-0.92
2022-11-19T07:32:44.468Z,-0.79
2022-11-19T07:47:48.623Z,-0.60
2022-11-19T08:02:52.502Z,-0.57
2022-11-19T08:18:16.111Z,-0.45
2022-11-19T08:33:19.659Z,-0.11
2022-11-19T08:48:22.856Z,-0.24
2022-11-19T09:03:26.207Z,-0.10
2022-11-19T09:18:30.967Z,0.03
2022-11-19T09:33:38.516Z,0.11
2022-11-19T09:48:42.002Z,0.12
2022-11-19T10:03:49.408Z,0.30
2022-11-19T12:30:18.528Z,0.11
2022-11-19T12:46:03.380Z,0.19
2022-11-19T13:01:17.020Z,0.73
2022-11-19T13:16:23.304Z,0.99
2022-11-19T13:31:29.623Z,0.75
2022-11-19T13:46:38.064Z,0.66
2022-11-19T14:02:03.265Z,0.59
2022-11-19T14:17:54.357Z,0.48
2022-11-19T14:32:59.269Z,0.35
2022-11-19T14:48:04.776Z,0.26
2022-11-19T15:03:27.380Z,-0.10
2022-11-19T15:18:42.889Z,-0.21
2022-11-19T15:34:12.732Z,-0.36
2022-11-19T16:04:17.989Z,-0.58
2022-11-19T16:19:22.771Z,-0.68
2022-11-19T16:34:45.972Z,-0.77
2022-11-19T16:50:27.359Z,-0.80
2022-11-19T17:05:30.931Z,-0.86
2022-11-19T17:20:35.052Z,-0.88
2022-11-19T17:35:41.876Z,-0.87
2022-11-19T17:50:45.351Z,-0.86
2022-11-19T18:05:49.925Z,-0.80
2022-11-19T18:20:55.445Z,-0.80
2022-11-19T18:36:02.280Z,-0.82
2022-11-19T18:51:06.067Z,-0.78
2022-11-19T19:06:10.547Z,-0.80
2022-11-19T19:21:17.730Z,-0.83
2022-11-19T19:36:22.185Z,-0.78
2022-11-19T19:51:30.205Z,-0.78
2022-11-19T20:06:34.909Z,-0.71
2022-11-19T20:21:38.666Z,-0.76
2022-11-19T20:36:43.041Z,-0.72
2022-11-19T20:51:46.376Z,-0.67
2022-11-19T21:06:50.500Z,-0.67
2022-11-19T21:21:54.109Z,-0.67
2022-11-19T21:36:58.419Z,-0.64
2022-11-19T21:52:02.973Z,-0.62
2022-11-19T22:07:07.129Z,-0.61
2022-11-19T22:22:10.447Z,-0.58
2022-11-19T22:37:14.135Z,-0.50
2022-11-19T22:52:17.873Z,-0.43
2022-11-19T23:07:21.214Z,-0.40
2022-11-19T23:22:24.532Z,-0.37
2022-11-19T23:37:28.193Z,-0.36
2022-11-19T23:52:31.590Z,-0.32
